createdAt,value
2023-02-13T00:00:30.940Z,5.70
2023-02-13T00:03:01.347Z,4.30
2023-02-13T00:05:32.159Z,6.05
2023-02-13T00:08:04.202Z,5.63
2023-02-13T00:10:34.770Z,5.55
2023-02-13T00:13:05.240Z,6.30
2023-02-13T00:15:35.936Z,5.97
2023-02-13T00:18:06.615Z,6.70
2023-02-13T00:20:37.036Z,5.53
2023-02-13T00:23:09.078Z,5.90
2023-02-13T00:25:39.424Z,4.82
2023-02-13T00:28:09.852Z,5.63
2023-02-13T00:30:40.247Z,5.47
2023-02-13T00:33:10.692Z,4.88
2023-02-13T00:35:41.160Z,5.55
2023-02-13T00:38:13.177Z,4.45
2023-02-13T00:40:43.912Z,4.38
2023-02-13T00:43:14.374Z,5.38
2023-02-13T00:45:46.086Z,4.65
2023-02-13T00:48:16.587Z,4.22
2023-02-13T00:50:47.077Z,4.60
2023-02-13T00:53:19.241Z,3.78
2023-02-13T00:55:49.942Z,4.45
2023-02-13T00:58:21.622Z,4.50
2023-02-13T01:00:53.034Z,4.28
2023-02-13T01:03:24.505Z,4.18
2023-02-13T01:05:55.185Z,3.60
2023-02-13T01:08:29.047Z,4.72
2023-02-13T01:10:59.922Z,4.40
2023-02-13T01:13:30.703Z,4.38
2023-02-13T01:16:01.200Z,5.00
2023-02-13T01:18:32.156Z,7.15
2023-02-13T01:21:04.383Z,6.40
2023-02-13T01:23:38.193Z,6.30
2023-02-13T01:26:13.971Z,4.70
2023-02-13T01:28:44.471Z,4.80
2023-02-13T01:31:15.014Z,5.57
2023-02-13T01:33:45.442Z,5.15
2023-02-13T01:36:16.543Z,6.72
2023-02-13T01:38:48.666Z,5.55
2023-02-13T01:41:19.115Z,5.07
2023-02-13T01:43:52.650Z,4.45
2023-02-13T01:46:28.818Z,3.92
2023-02-13T01:49:05.953Z,5.50
2023-02-13T01:51:38.104Z,5.15
2023-02-13T01:54:13.683Z,5.32
2023-02-13T01:56:49.156Z,5.03
2023-02-13T01:59:22.729Z,6.22
2023-02-13T02:01:53.906Z,5.38
2023-02-13T02:04:28.293Z,5.45
2023-02-13T02:07:01.442Z,5.82
2023-02-13T02:09:38.360Z,5.65
2023-02-13T02:12:12.764Z,5.57
2023-02-13T02:14:44.161Z,6.18
2023-02-13T02:17:14.877Z,5.57
2023-02-13T02:19:52.786Z,5.57
2023-02-13T02:22:49.247Z,4.65
2023-02-13T02:25:50.051Z,5.47
2023-02-13T02:28:49.428Z,5.53
2023-02-13T02:32:06.172Z,5.63
2023-02-13T02:34:44.314Z,3.85
2023-02-13T02:37:30.363Z,3.63
2023-02-13T02:40:11.107Z,3.42
2023-02-13T02:42:54.114Z,5.25
2023-02-13T02:45:31.313Z,5.03
2023-02-13T02:48:26.810Z,5.10
2023-02-13T02:51:05.679Z,4.43
2023-02-13T02:53:41.777Z,4.40
2023-02-13T02:56:20.387Z,5.25
2023-02-13T02:59:13.549Z,4.50
2023-02-13T03:02:03.781Z,3.33
2023-02-13T03:04:59.658Z,4.82
2023-02-13T03:07:30.802Z,4.35
2023-02-13T03:10:21.270Z,4.32
2023-02-13T03:13:13.525Z,3.72
2023-02-13T03:16:00.103Z,4.82
2023-02-13T03:18:48.920Z,3.60
2023-02-13T03:21:45.131Z,4.20
2023-02-13T03:24:28.226Z,3.22
2023-02-13T03:27:05.785Z,3.75
2023-02-13T03:30:03.053Z,3.38
2023-02-13T03:32:42.511Z,3.00
2023-02-13T03:35:47.138Z,3.72
2023-02-13T03:38:25.063Z,3.63
2023-02-13T03:41:18.738Z,3.05
2023-02-13T03:43:59.692Z,3.22
2023-02-13T03:46:33.490Z,4.32
2023-02-13T03:49:22.428Z,4.07
2023-02-13T03:51:59.505Z,3.67
2023-02-13T03:54:53.089Z,3.95
2023-02-13T03:57:42.916Z,4.28
2023-02-13T04:00:16.621Z,4.57
2023-02-13T04:02:57.329Z,4.28
2023-02-13T04:05:31.075Z,3.72
2023-02-13T04:08:01.959Z,5.13
2023-02-13T04:10:38.451Z,4.15
2023-02-13T04:13:17.394Z,4.30
2023-02-13T04:15:55.433Z,4.07
2023-02-13T04:18:29.910Z,4.15
2023-02-13T04:21:00.401Z,4.03
2023-02-13T04:23:30.899Z,4.65
2023-02-13T04:26:05.492Z,4.47
2023-02-13T04:28:36.175Z,3.85
2023-02-13T04:31:06.919Z,4.30
2023-02-13T04:33:37.515Z,4.20
2023-02-13T04:36:08.813Z,3.70
2023-02-13T04:38:39.207Z,4.70
2023-02-13T04:41:11.218Z,5.15
2023-02-13T04:43:41.768Z,4.35
2023-02-13T04:46:12.248Z,4.00
2023-02-13T04:48:42.851Z,5.63
2023-02-13T04:51:13.601Z,5.75
2023-02-13T04:53:44.067Z,5.75
2023-02-13T04:56:17.227Z,4.78
2023-02-13T04:58:48.443Z,7.80
2023-02-13T05:01:20.089Z,6.40
2023-02-13T05:03:51.093Z,5.63
2023-02-13T05:06:21.539Z,4.90
2023-02-13T05:08:52.014Z,5.18
2023-02-13T05:11:24.273Z,4.10
2023-02-13T05:13:54.882Z,5.88
2023-02-13T05:16:26.193Z,5.28
2023-02-13T05:18:57.989Z,5.90
2023-02-13T05:21:41.978Z,5.85
2023-02-13T05:24:12.382Z,5.25
2023-02-13T05:26:44.407Z,3.72
2023-02-13T05:29:24.873Z,4.38
2023-02-13T05:31:56.804Z,4.57
2023-02-13T05:34:30.332Z,4.32
2023-02-13T05:37:01.436Z,3.40
2023-02-13T05:39:31.882Z,4.07
2023-02-13T05:42:05.651Z,3.42
2023-02-13T05:44:36.230Z,4.32
2023-02-13T05:47:06.732Z,3.80
2023-02-13T05:49:37.211Z,4.38
2023-02-13T05:52:07.945Z,4.55
2023-02-13T05:54:39.300Z,4.68
2023-02-13T05:57:11.308Z,4.57
2023-02-13T05:59:41.794Z,4.38
2023-02-13T06:02:12.212Z,6.22
2023-02-13T06:04:42.657Z,3.97
2023-02-13T06:07:13.003Z,4.90
2023-02-13T06:09:43.357Z,4.38
2023-02-13T06:12:15.476Z,3.97
2023-02-13T06:14:48.305Z,3.92
2023-02-13T06:17:21.145Z,4.60
2023-02-13T06:20:00.456Z,4.60
2023-02-13T06:22:30.874Z,5.95
2023-02-13T06:25:01.533Z,4.57
2023-02-13T06:27:34.031Z,6.20
2023-02-13T06:30:04.678Z,4.65
2023-02-13T06:32:35.134Z,4.20
2023-02-13T06:35:05.765Z,4.03
2023-02-13T06:37:36.594Z,3.58
2023-02-13T06:40:07.526Z,4.70
2023-02-13T06:42:39.567Z,4.22
2023-02-13T06:45:11.014Z,4.40
2023-02-13T06:47:45.195Z,4.53
2023-02-13T06:50:17.073Z,4.40
2023-02-13T06:52:50.917Z,5.53
2023-02-13T06:55:22.060Z,4.53
2023-02-13T06:57:54.087Z,4.32
2023-02-13T07:00:26.257Z,4.65
2023-02-13T07:02:57.649Z,4.47
2023-02-13T07:05:28.099Z,4.95
2023-02-13T07:07:58.555Z,3.88
2023-02-13T07:10:29.063Z,4.18
2023-02-13T07:13:06.011Z,3.65
2023-02-13T07:15:37.355Z,5.00
2023-02-13T07:18:08.548Z,4.70
2023-02-13T07:20:39.138Z,4.35
2023-02-13T07:23:09.576Z,5.00
2023-02-13T07:25:39.941Z,4.80
2023-02-13T07:28:12.722Z,4.18
2023-02-13T07:30:43.207Z,4.97
2023-02-13T07:33:13.823Z,5.20
2023-02-13T07:35:49.893Z,4.88
2023-02-13T07:38:20.984Z,4.85
2023-02-13T07:40:51.487Z,3.95
2023-02-13T07:43:23.576Z,5.10
2023-02-13T07:45:56.481Z,4.47
2023-02-13T07:48:28.173Z,4.20
2023-02-13T07:51:04.720Z,5.05
2023-02-13T07:53:35.346Z,4.00
2023-02-13T07:56:09.167Z,3.47
2023-02-13T07:58:45.513Z,3.50
2023-02-13T08:01:18.259Z,4.68
2023-02-13T08:03:53.412Z,4.75
2023-02-13T08:06:24.358Z,4.82
2023-02-13T08:09:14.973Z,4.30
2023-02-13T08:11:56.798Z,4.75
2023-02-13T08:14:32.905Z,4.57
2023-02-13T08:17:06.454Z,4.60
2023-02-13T08:19:37.008Z,4.72
2023-02-13T08:22:11.445Z,3.88
2023-02-13T08:24:43.226Z,4.10
2023-02-13T08:27:16.929Z,4.30
2023-02-13T08:29:51.978Z,4.70
2023-02-13T08:32:23.735Z,4.50
2023-02-13T08:34:55.319Z,4.47
2023-02-13T08:37:27.478Z,3.88
2023-02-13T08:39:59.275Z,4.55
2023-02-13T08:42:31.720Z,4.60
2023-02-13T08:45:05.124Z,3.90
2023-02-13T08:47:36.969Z,4.55
2023-02-13T08:50:09.497Z,4.65
2023-02-13T08:52:40.989Z,4.00
2023-02-13T08:55:12.718Z,3.63
2023-02-13T08:57:44.990Z,4.45
2023-02-13T09:00:18.741Z,3.75
2023-02-13T09:02:51.440Z,4.97
2023-02-13T09:05:23.333Z,4.50
2023-02-13T09:07:54.858Z,4.40
2023-02-13T09:10:26.310Z,4.45
2023-02-13T09:12:58.110Z,5.20
2023-02-13T09:15:31.338Z,5.85
2023-02-13T09:18:02.796Z,5.55
2023-02-13T09:20:35.789Z,5.63
2023-02-13T09:23:07.750Z,4.97
2023-02-13T09:25:39.701Z,5.78
2023-02-13T09:28:11.216Z,5.80
2023-02-13T09:30:44.458Z,5.03
2023-02-13T09:33:16.746Z,5.45
2023-02-13T09:35:53.145Z,4.82
2023-02-13T09:38:24.826Z,5.35
2023-02-13T09:41:02.797Z,5.72
2023-02-13T09:43:38.564Z,4.80
2023-02-13T09:46:17.326Z,5.45
2023-02-13T09:48:53.529Z,5.20
2023-02-13T09:51:26.823Z,5.65
2023-02-13T09:54:02.877Z,4.85
2023-02-13T09:56:47.946Z,5.07
2023-02-13T09:59:32.931Z,4.55
2023-02-13T10:02:22.185Z,4.38
2023-02-13T10:05:03.624Z,4.38
2023-02-13T10:07:45.314Z,4.47
2023-02-13T10:10:27.836Z,4.32
2023-02-13T10:13:19.479Z,3.88
2023-02-13T10:15:56.169Z,3.95
2023-02-13T10:18:37.509Z,3.75
2023-02-13T10:21:11.233Z,3.38
2023-02-13T10:23:46.461Z,3.30
2023-02-13T10:26:24.342Z,2.65
2023-02-13T10:29:18.116Z,3.67
2023-02-13T10:31:53.669Z,3.17
2023-02-13T10:34:30.621Z,3.47
2023-02-13T10:37:03.780Z,3.75
2023-02-13T10:39:35.498Z,3.08
2023-02-13T10:42:18.825Z,3.63
2023-02-13T10:45:05.315Z,3.92
2023-02-13T10:47:54.678Z,4.03
2023-02-13T10:50:34.228Z,3.60
2023-02-13T10:53:16.828Z,3.80
2023-02-13T10:56:10.977Z,3.75
2023-02-13T10:58:56.309Z,3.65
2023-02-13T11:01:34.654Z,3.30
2023-02-13T11:04:10.184Z,3.25
2023-02-13T11:06:46.946Z,3.13
2023-02-13T11:09:18.501Z,3.42
2023-02-13T11:11:50.120Z,3.28
2023-02-13T11:14:23.094Z,3.88
2023-02-13T11:16:59.233Z,3.33
2023-02-13T11:19:35.978Z,3.30
2023-02-13T11:22:11.960Z,3.67
2023-02-13T11:24:45.869Z,3.40
2023-02-13T11:27:19.391Z,3.53
2023-02-13T11:30:03.278Z,3.42
2023-02-13T11:32:36.028Z,3.17
2023-02-13T11:35:31.548Z,3.20
2023-02-13T11:38:24.456Z,3.15
2023-02-13T11:41:21.251Z,3.38
2023-02-13T11:44:01.777Z,3.22
2023-02-13T11:49:06.795Z,2.97
2023-02-13T11:51:44.130Z,2.85
2023-02-13T11:54:35.440Z,2.92
2023-02-13T11:57:22.114Z,3.53
2023-02-13T11:59:54.871Z,3.30
2023-02-13T12:02:29.077Z,2.50
2023-02-13T12:05:18.417Z,3.33
2023-02-13T12:07:54.764Z,3.97
2023-02-13T12:10:28.702Z,3.47
2023-02-13T12:13:01.006Z,3.53
2023-02-13T12:15:35.529Z,3.33
2023-02-13T12:18:19.358Z,2.90
2023-02-13T12:21:00.515Z,3.20
2023-02-13T12:23:44.872Z,3.03
2023-02-13T12:26:26.276Z,4.30
2023-02-13T12:29:27.769Z,4.22
2023-02-13T12:32:09.026Z,3.72
2023-02-13T12:34:57.457Z,3.97
2023-02-13T12:37:50.032Z,3.83
2023-02-13T12:41:02.550Z,4.00
2023-02-13T12:44:14.303Z,4.07
2023-02-13T12:46:57.511Z,3.90
2023-02-13T12:50:09.409Z,4.18
2023-02-13T12:53:21.368Z,4.00
2023-02-13T12:56:21.095Z,4.32
2023-02-13T12:59:18.051Z,3.53
2023-02-13T13:02:45.588Z,3.67
2023-02-13T13:05:40.950Z,4.05
2023-02-13T13:08:35.391Z,4.50
2023-02-13T13:11:25.477Z,4.07
2023-02-13T13:14:04.026Z,4.53
2023-02-13T13:16:47.077Z,4.38
2023-02-13T13:19:31.604Z,4.55
2023-02-13T13:22:07.326Z,4.13
2023-02-13T13:24:54.164Z,4.55
2023-02-13T13:27:29.515Z,4.22
2023-02-13T13:30:04.616Z,4.30
2023-02-13T13:32:40.544Z,4.78
2023-02-13T13:35:17.956Z,4.40
2023-02-13T13:38:03.952Z,4.78
2023-02-13T13:40:46.721Z,4.97
2023-02-13T13:43:27.835Z,5.10
2023-02-13T13:46:11.088Z,4.55
2023-02-13T13:49:02.724Z,5.00
2023-02-13T13:51:35.031Z,4.65
2023-02-13T13:54:37.390Z,4.90
2023-02-13T13:57:12.514Z,4.45
2023-02-13T14:00:07.741Z,4.65
2023-02-13T14:02:48.656Z,4.53
2023-02-13T14:05:32.106Z,4.90
2023-02-13T14:08:05.750Z,4.82
2023-02-13T14:11:05.557Z,4.82
2023-02-13T14:13:39.430Z,4.93
2023-02-13T14:16:14.823Z,4.68
2023-02-13T14:18:51.450Z,4.40
2023-02-13T14:21:30.463Z,4.00
2023-02-13T14:24:05.245Z,4.28
2023-02-13T14:26:39.687Z,4.13
2023-02-13T14:29:31.350Z,4.30
2023-02-13T14:32:22.452Z,3.95
2023-02-13T14:34:58.864Z,3.80
2023-02-13T14:37:41.313Z,4.25
2023-02-13T14:40:48.145Z,3.95
2023-02-13T14:43:32.192Z,4.38
2023-02-13T14:46:12.316Z,3.80
2023-02-13T14:48:49.047Z,3.72
2023-02-13T14:51:31.389Z,4.07
2023-02-13T14:54:10.417Z,3.90
2023-02-13T14:56:45.006Z,4.00
2023-02-13T14:59:21.188Z,3.90
2023-02-13T15:02:05.859Z,4.68
2023-02-13T15:05:01.059Z,4.13
2023-02-13T15:07:41.387Z,4.70
2023-02-13T15:10:33.620Z,4.13
2023-02-13T15:13:07.332Z,4.47
2023-02-13T15:15:40.352Z,4.22
2023-02-13T15:18:15.195Z,4.43
2023-02-13T15:20:48.309Z,4.63
2023-02-13T15:23:27.312Z,4.25
2023-02-13T15:26:04.697Z,4.35
2023-02-13T15:28:37.880Z,4.50
2023-02-13T15:31:11.438Z,4.20
2023-02-13T15:33:49.353Z,4.22
2023-02-13T15:36:23.853Z,4.28
2023-02-13T15:39:05.195Z,4.10
2023-02-13T15:41:41.431Z,3.78
2023-02-13T15:44:24.622Z,3.70
2023-02-13T15:46:58.275Z,3.97
2023-02-13T15:49:31.268Z,4.10
2023-02-13T15:52:11.585Z,4.00
2023-02-13T15:54:52.862Z,4.35
2023-02-13T15:57:28.407Z,4.38
2023-02-13T16:00:01.078Z,4.20
2023-02-13T16:02:39.561Z,4.25
2023-02-13T16:05:15.678Z,4.22
2023-02-13T16:07:55.834Z,4.30
2023-02-13T16:10:34.392Z,4.53
2023-02-13T16:13:10.153Z,4.10
2023-02-13T16:15:41.794Z,5.10
2023-02-13T16:18:23.162Z,4.38
2023-02-13T16:20:59.081Z,4.03
2023-02-13T16:23:32.033Z,4.00
2023-02-13T16:26:09.996Z,4.82
2023-02-13T16:28:43.363Z,4.70
2023-02-13T16:31:20.030Z,5.05
2023-02-13T16:33:51.685Z,4.93
2023-02-13T16:36:33.136Z,4.30
2023-02-13T16:39:15.300Z,5.50
2023-02-13T16:41:46.996Z,4.80
2023-02-13T16:44:33.828Z,4.43
2023-02-13T16:47:07.713Z,4.60
2023-02-13T16:49:41.141Z,4.68
2023-02-13T16:52:15.501Z,4.32
2023-02-13T16:54:57.211Z,4.05
2023-02-13T16:57:32.343Z,4.72
2023-02-13T17:00:24.487Z,5.10
2023-02-13T17:02:57.047Z,4.20
2023-02-13T17:05:30.428Z,4.05
2023-02-13T17:08:03.394Z,4.28
2023-02-13T17:10:37.580Z,4.32
2023-02-13T17:13:20.427Z,4.38
2023-02-13T17:15:53.648Z,3.85
2023-02-13T17:18:25.302Z,8.40
2023-02-13T17:20:58.857Z,7.47
2023-02-13T17:23:30.769Z,13.57
2023-02-13T17:26:02.255Z,24.10
2023-02-13T17:28:38.905Z,31.88
2023-02-13T17:31:15.352Z,23.98
2023-02-13T17:33:46.869Z,28.75
2023-02-13T17:36:18.701Z,24.02
2023-02-13T17:38:50.087Z,21.90
2023-02-13T17:41:21.879Z,13.82
2023-02-13T17:43:53.346Z,10.52
2023-02-13T17:46:26.935Z,6.93
2023-02-13T17:48:58.697Z,7.72
2023-02-13T17:51:30.392Z,7.10
2023-02-13T17:54:02.186Z,5.53
2023-02-13T17:56:33.853Z,5.53
2023-02-13T17:59:08.203Z,5.22
2023-02-13T18:01:41.756Z,4.78
2023-02-13T18:04:13.568Z,5.57
2023-02-13T18:06:45.297Z,4.50
2023-02-13T18:09:16.939Z,4.63
2023-02-13T18:12:04.861Z,4.15
2023-02-13T18:14:37.932Z,3.72
2023-02-13T18:17:11.484Z,4.10
2023-02-13T18:19:44.116Z,3.92
2023-02-13T18:22:16.181Z,4.25
2023-02-13T18:24:48.101Z,3.92
2023-02-13T18:27:20.255Z,4.65
2023-02-13T18:29:52.000Z,4.10
2023-02-13T18:32:25.835Z,3.65
2023-02-13T18:34:57.553Z,4.13
2023-02-13T18:37:30.646Z,5.88
2023-02-13T18:40:02.535Z,4.72
2023-02-13T18:42:34.275Z,5.28
2023-02-13T18:45:06.250Z,5.43
2023-02-13T18:47:39.539Z,5.00
2023-02-13T18:50:11.917Z,5.35
2023-02-13T18:52:43.713Z,4.85
2023-02-13T18:55:15.327Z,4.55
2023-02-13T18:57:46.868Z,4.22
2023-02-13T19:00:21.212Z,4.25
2023-02-13T19:02:56.900Z,4.53
2023-02-13T19:05:29.239Z,4.30
2023-02-13T19:08:00.945Z,4.88
2023-02-13T19:10:32.871Z,4.57
2023-02-13T19:13:04.399Z,5.07
2023-02-13T19:15:36.296Z,4.88
2023-02-13T19:18:10.138Z,4.78
2023-02-13T19:20:42.423Z,4.22
2023-02-13T19:23:14.089Z,5.78
2023-02-13T19:25:45.553Z,5.65
2023-02-13T19:28:17.226Z,4.50
2023-02-13T19:30:48.964Z,4.50
2023-02-13T19:33:22.749Z,4.97
2023-02-13T19:36:01.972Z,6.00
2023-02-13T19:38:33.912Z,5.30
2023-02-13T19:41:08.040Z,4.82
2023-02-13T19:43:39.758Z,5.13
2023-02-13T19:46:14.305Z,4.38
2023-02-13T19:48:48.538Z,3.80
2023-02-13T19:51:22.411Z,4.07
2023-02-13T19:53:58.148Z,4.75
2023-02-13T19:56:30.549Z,4.50
2023-02-13T19:59:02.098Z,8.68
2023-02-13T20:01:33.458Z,8.68
2023-02-13T20:04:05.625Z,13.40
2023-02-13T20:06:38.118Z,6.07
2023-02-13T20:09:11.231Z,4.70
2023-02-13T20:11:42.985Z,4.57
2023-02-13T20:14:15.586Z,5.38
2023-02-13T20:16:47.631Z,4.80
2023-02-13T20:19:19.692Z,4.22
2023-02-13T20:21:50.119Z,5.55
2023-02-13T20:24:21.142Z,4.70
2023-02-13T20:26:51.748Z,5.00
2023-02-13T20:29:22.360Z,4.30
2023-02-13T20:31:53.083Z,5.60
2023-02-13T20:34:25.847Z,5.03
2023-02-13T20:36:56.828Z,5.82
2023-02-13T20:39:27.864Z,6.82
2023-02-13T20:41:59.194Z,7.80
2023-02-13T20:44:31.230Z,8.18
2023-02-13T20:47:01.796Z,6.93
2023-02-13T20:49:33.986Z,4.45
2023-02-13T20:52:06.436Z,4.88
2023-02-13T20:54:37.110Z,5.10
2023-02-13T20:57:07.647Z,4.57
2023-02-13T20:59:38.169Z,4.68
2023-02-13T21:02:09.164Z,4.35
2023-02-13T21:04:41.372Z,3.50
2023-02-13T21:07:12.075Z,4.43
2023-02-13T21:09:42.569Z,6.05
2023-02-13T21:12:13.217Z,6.63
2023-02-13T21:14:43.696Z,6.97
2023-02-13T21:17:30.121Z,3.90
2023-02-13T21:20:12.139Z,6.05
2023-02-13T21:22:42.797Z,5.00
2023-02-13T21:25:15.753Z,5.95
2023-02-13T21:27:46.532Z,5.60
2023-02-13T21:30:17.327Z,6.72
2023-02-13T21:32:48.182Z,5.68
2023-02-13T21:35:20.836Z,5.93
2023-02-13T21:37:51.406Z,7.30
2023-02-13T21:40:22.121Z,5.10
2023-02-13T21:42:55.108Z,6.35
2023-02-13T21:45:25.581Z,6.85
2023-02-13T21:48:01.078Z,6.38
2023-02-13T21:50:34.623Z,8.20
2023-02-13T21:53:05.210Z,5.78
2023-02-13T21:55:36.558Z,7.85
2023-02-13T21:58:07.555Z,6.45
2023-02-13T22:00:38.290Z,5.65
2023-02-13T22:03:08.872Z,5.70
2023-02-13T22:05:41.142Z,7.50
2023-02-13T22:08:14.309Z,9.38
2023-02-13T22:10:44.801Z,7.50
2023-02-13T22:13:15.309Z,7.15
2023-02-13T22:15:47.363Z,6.60
2023-02-13T22:18:17.869Z,7.35
2023-02-13T22:20:50.209Z,8.52
2023-02-13T22:23:20.702Z,5.68
2023-02-13T22:25:51.578Z,7.28
2023-02-13T22:28:22.049Z,4.93
2023-02-13T22:30:52.964Z,7.00
2023-02-13T22:33:23.644Z,9.20
2023-02-13T22:35:56.013Z,6.60
2023-02-13T22:38:26.445Z,7.95
2023-02-13T22:40:57.427Z,6.13
2023-02-13T22:43:28.205Z,7.25
2023-02-13T22:46:00.319Z,6.70
2023-02-13T22:48:32.443Z,8.05
2023-02-13T22:51:07.242Z,8.98
2023-02-13T22:53:38.672Z,11.07
2023-02-13T22:56:10.131Z,4.55
2023-02-13T22:58:41.326Z,5.60
2023-02-13T23:01:17.245Z,6.43
2023-02-13T23:03:48.114Z,7.50
2023-02-13T23:06:20.823Z,6.07
2023-02-13T23:08:53.365Z,8.68
2023-02-13T23:11:42.985Z,7.97
2023-02-13T23:14:13.799Z,7.43
2023-02-13T23:17:02.230Z,6.95
2023-02-13T23:19:33.232Z,7.05
2023-02-13T23:22:05.266Z,6.57
2023-02-13T23:24:36.334Z,6.40
2023-02-13T23:27:06.889Z,7.50
2023-02-13T23:29:39.435Z,7.80
2023-02-13T23:32:10.150Z,8.55
2023-02-13T23:34:40.640Z,8.25
2023-02-13T23:37:12.854Z,7.22
2023-02-13T23:39:43.283Z,7.90
2023-02-13T23:42:13.956Z,7.10
2023-02-13T23:44:44.402Z,6.85
2023-02-13T23:47:14.915Z,7.15
2023-02-13T23:49:45.414Z,9.23
2023-02-13T23:52:20.628Z,7.57
2023-02-13T23:54:51.093Z,9.75
2023-02-13T23:57:22.037Z,9.38
2023-02-13T23:59:53.763Z,10.20
